CheckWX is a tool to help pilots better visualize weather data.  It is not intended as a substitute for an official pre-flight weather briefing.

12:19:12 UTC

KRZT METAR
Ross County Airport
Chillicothe, Ohio, USA
Current

24 mins ago

KRZT 181155Z 28005KT OVC021 00/M01 A3003 RMK AO2
Observed
Feb-18 @ 11:55 UTC
Wind
  • 280° at 5 KTS
Visibility
Cloud Levels
  • Overcast at 2,100' AGL
Temperature
C / 32°F
Dewpoint
-1°C / 30°F
Humidity
93%
Altimeter
30.03" Hg
Pressure
1016.92 hPa
Previous

43 mins ago

KRZT 181136Z 29006KT 00/M01 A3002 RMK AO2
Observed
Feb-18 @ 11:36 UTC
Wind
  • 290° at 6 KTS
Visibility
Temperature
C / 32°F
Dewpoint
-1°C / 30°F
Humidity
93%
Altimeter
30.02" Hg
Pressure
1016.62 hPa
Previous

1 hour ago

KRZT 181116Z 29008KT BKN015 BKN024 OVC029 00/M01 A3001 RMK AO2
Observed
Feb-18 @ 11:16 UTC
Wind
  • 290° at 8 KTS
Visibility
Cloud Levels
  • Broken at 1,500' AGL
  • Broken at 2,400' AGL
  • Overcast at 2,900' AGL
Temperature
C / 32°F
Dewpoint
-1°C / 30°F
Humidity
93%
Altimeter
30.01" Hg
Pressure
1016.22 hPa